createdAt,value
2022-10-17T00:00:40.246Z,100471.81
2022-10-17T00:04:01.746Z,100472.91
2022-10-17T00:07:03.590Z,100474.10
2022-10-17T00:10:06.897Z,100477.30
2022-10-17T00:13:09.472Z,100477.14
2022-10-17T00:16:11.253Z,100475.00
2022-10-17T00:19:12.860Z,100473.86
2022-10-17T00:22:14.496Z,100474.41
2022-10-17T00:25:16.302Z,100475.00
2022-10-17T00:28:17.854Z,100478.35
2022-10-17T00:31:20.192Z,100478.09
2022-10-17T00:34:22.034Z,100474.24
2022-10-17T00:37:23.806Z,100483.92
2022-10-17T00:40:25.613Z,100484.73
2022-10-17T00:43:27.665Z,100491.70
2022-10-17T00:46:31.965Z,100494.28
2022-10-17T00:49:36.173Z,100489.45
2022-10-17T00:52:37.888Z,100487.78
2022-10-17T00:55:46.371Z,100489.65
2022-10-17T00:58:48.501Z,100489.73
2022-10-17T01:02:13.637Z,100490.34
2022-10-17T01:05:16.266Z,100494.17
2022-10-17T01:08:17.960Z,100493.98
2022-10-17T01:11:40.235Z,100493.89
2022-10-17T01:15:06.815Z,100493.27
2022-10-17T01:18:08.588Z,100494.96
2022-10-17T01:21:32.136Z,100494.58
2022-10-17T01:24:56.395Z,100492.65
2022-10-17T01:28:19.526Z,100496.09
2022-10-17T01:31:43.853Z,100494.04
2022-10-17T01:34:55.106Z,100495.38
2022-10-17T01:38:14.722Z,100497.84
2022-10-17T01:41:35.878Z,100499.76
2022-10-17T01:44:58.870Z,100499.20
2022-10-17T01:48:05.671Z,100501.27
2022-10-17T01:51:18.763Z,100497.61
2022-10-17T01:54:27.517Z,100500.48
2022-10-17T01:57:33.109Z,100502.56
2022-10-17T02:00:35.799Z,100499.81
2022-10-17T02:03:39.942Z,100499.29
2022-10-17T02:06:41.586Z,100502.35
2022-10-17T02:09:43.460Z,100505.27
2022-10-17T02:13:04.053Z,100507.16
2022-10-17T02:16:15.110Z,100505.11
2022-10-17T02:19:41.431Z,100503.42
2022-10-17T02:22:49.978Z,100502.70
2022-10-17T02:26:00.263Z,100506.02
2022-10-17T02:29:21.974Z,100508.39
2022-10-17T02:32:40.754Z,100506.41
2022-10-17T02:35:47.230Z,100507.73
2022-10-17T02:38:50.505Z,100508.35
2022-10-17T02:41:52.971Z,100509.71
2022-10-17T02:44:55.557Z,100514.69
2022-10-17T02:48:12.416Z,100521.23
2022-10-17T02:51:28.051Z,100520.75
2022-10-17T02:54:38.149Z,100523.23
2022-10-17T02:57:45.950Z,100521.95
2022-10-17T03:00:47.793Z,100522.09
2022-10-17T03:03:50.619Z,100523.89
2022-10-17T03:06:52.378Z,100521.47
2022-10-17T03:09:54.153Z,100521.02
2022-10-17T03:12:56.745Z,100522.42
2022-10-17T03:15:58.505Z,100528.41
2022-10-17T03:19:00.108Z,100533.27
2022-10-17T03:22:01.897Z,100537.12
2022-10-17T03:25:03.826Z,100540.53
2022-10-17T03:28:05.964Z,100542.05
2022-10-17T03:31:09.542Z,100545.98
2022-10-17T03:34:11.510Z,100546.75
2022-10-17T03:41:55.660Z,100554.05
2022-10-17T03:44:57.472Z,100557.93
2022-10-17T05:05:01.984Z,100601.12
2022-10-17T05:08:09.849Z,100606.46
2022-10-17T05:11:23.171Z,100610.83
2022-10-17T05:14:24.964Z,100608.85
2022-10-17T05:17:26.771Z,100608.00
2022-10-17T05:20:28.589Z,100613.48
2022-10-17T05:23:30.946Z,100617.41
2022-10-17T05:26:32.655Z,100624.08
2022-10-17T05:29:34.811Z,100627.15
2022-10-17T05:32:36.777Z,100628.20
2022-10-17T05:35:38.384Z,100632.58
2022-10-17T05:38:39.949Z,100632.37
2022-10-17T05:41:41.692Z,100630.28
2022-10-17T05:44:43.394Z,100634.29
2022-10-17T05:47:46.166Z,100639.09
2022-10-17T05:50:47.926Z,100637.64
2022-10-17T05:53:49.617Z,100646.94
2022-10-17T05:56:55.788Z,100646.12
2022-10-17T05:59:57.507Z,100642.74
2022-10-17T06:02:59.202Z,100641.23
2022-10-17T06:06:09.485Z,100636.51
2022-10-17T06:09:11.852Z,100637.20
2022-10-17T06:12:13.637Z,100640.13
2022-10-17T06:15:15.450Z,100641.30
2022-10-17T06:18:17.188Z,100639.38
2022-10-17T06:21:27.108Z,100642.45
2022-10-17T06:24:28.892Z,100646.80
2022-10-17T06:27:30.711Z,100647.22
2022-10-17T06:30:32.448Z,100652.78
2022-10-17T06:33:34.446Z,100659.93
2022-10-17T06:36:36.146Z,100663.43
2022-10-17T06:39:37.912Z,100664.50
2022-10-17T06:42:39.750Z,100667.50
2022-10-17T06:45:42.000Z,100674.23
2022-10-17T06:48:43.856Z,100673.53
2022-10-17T06:51:45.944Z,100680.80
2022-10-17T06:54:47.596Z,100687.20
2022-10-17T06:57:49.375Z,100692.02
2022-10-17T07:00:51.196Z,100687.89
2022-10-17T07:03:53.120Z,100689.45
2022-10-17T07:06:54.825Z,100685.53
2022-10-17T07:09:56.705Z,100691.75
2022-10-17T07:12:58.291Z,100698.71
2022-10-17T07:16:01.871Z,100701.81
2022-10-17T07:19:03.787Z,100697.02
2022-10-17T07:22:06.361Z,100695.88
2022-10-17T07:25:09.151Z,100693.02
2022-10-17T07:28:10.910Z,100692.48
2022-10-17T07:31:15.856Z,100696.77
2022-10-17T07:34:18.484Z,100700.18
2022-10-17T07:37:20.048Z,100701.10
2022-10-17T07:40:22.382Z,100693.52
2022-10-17T07:43:25.434Z,100693.77
2022-10-17T07:46:27.204Z,100692.48
2022-10-17T07:49:29.432Z,100694.91
2022-10-17T07:52:32.061Z,100696.01
2022-10-17T07:55:33.977Z,100692.44
2022-10-17T07:58:36.780Z,100685.73
2022-10-17T08:01:38.536Z,100682.63
2022-10-17T08:04:40.297Z,100684.09
2022-10-17T08:07:41.988Z,100687.52
2022-10-17T08:10:43.714Z,100683.10
2022-10-17T08:13:45.361Z,100686.55
2022-10-17T08:16:47.103Z,100681.59
2022-10-17T08:19:48.718Z,100681.83
2022-10-17T08:22:54.539Z,100686.83
2022-10-17T08:25:59.842Z,100691.67
2022-10-17T08:29:01.780Z,100691.55
2022-10-17T08:32:05.418Z,100693.18
2022-10-17T08:35:08.746Z,100689.64
2022-10-17T08:38:12.306Z,100686.84
2022-10-17T08:41:53.464Z,100691.80
2022-10-17T08:45:14.756Z,100692.41
2022-10-17T08:48:19.512Z,100688.92
2022-10-17T08:51:24.816Z,100687.41
2022-10-17T08:54:40.510Z,100690.36
2022-10-17T08:57:43.009Z,100692.86
2022-10-17T09:00:59.134Z,100694.50
2022-10-17T09:04:03.991Z,100696.84
2022-10-17T09:07:23.024Z,100694.39
2022-10-17T09:10:53.949Z,100688.41
2022-10-17T09:14:15.580Z,100684.13
2022-10-17T09:17:39.010Z,100684.82
2022-10-17T09:20:45.116Z,100690.48
2022-10-17T09:23:59.555Z,100689.73
2022-10-17T09:27:40.985Z,100688.96
2022-10-17T09:30:57.260Z,100688.55
2022-10-17T09:34:01.714Z,100689.77
2022-10-17T09:37:03.718Z,100689.27
2022-10-17T09:40:07.956Z,100688.82
2022-10-17T09:43:12.013Z,100694.41
2022-10-17T09:46:25.850Z,100692.41
2022-10-17T09:49:37.152Z,100692.48
2022-10-17T09:52:48.653Z,100691.66
2022-10-17T09:55:56.279Z,100694.84
2022-10-17T09:58:59.155Z,100696.34
2022-10-17T10:02:13.070Z,100691.80
2022-10-17T10:05:18.034Z,100689.54
2022-10-17T10:08:21.491Z,100685.93
2022-10-17T10:11:26.679Z,100686.55
2022-10-17T10:14:33.673Z,100682.84
2022-10-17T10:17:41.996Z,100687.80
2022-10-17T10:20:46.964Z,100689.80
2022-10-17T10:24:12.621Z,100688.23
2022-10-17T10:27:17.102Z,100686.75
2022-10-17T10:30:28.348Z,100682.48
2022-10-17T10:33:30.908Z,100681.86
2022-10-17T10:37:25.327Z,100681.30
2022-10-17T10:40:33.381Z,100678.46
2022-10-17T10:43:40.530Z,100682.02
2022-10-17T10:46:42.290Z,100679.34
2022-10-17T10:49:45.421Z,100674.80
2022-10-17T10:52:56.690Z,100671.95
2022-10-17T10:56:11.675Z,100664.55
2022-10-17T10:59:28.529Z,100665.41
2022-10-17T11:03:13.012Z,100664.46
2022-10-17T11:06:20.614Z,100660.02
2022-10-17T11:09:33.016Z,100661.55
2022-10-17T11:12:46.901Z,100657.61
2022-10-17T11:15:58.278Z,100653.70
2022-10-17T11:19:05.003Z,100651.33
2022-10-17T11:22:24.021Z,100650.65
2022-10-17T11:25:37.450Z,100648.82
2022-10-17T11:28:39.181Z,100648.98
2022-10-17T11:31:46.351Z,100644.66
2022-10-17T11:34:51.696Z,100637.98
2022-10-17T11:38:17.200Z,100640.77
2022-10-17T11:41:38.793Z,100644.11
2022-10-17T11:44:41.708Z,100640.40
2022-10-17T11:47:49.890Z,100638.58
2022-10-17T11:54:35.539Z,100641.76
2022-10-17T11:57:46.678Z,100636.44
2022-10-17T12:00:55.410Z,100635.67
2022-10-17T12:04:31.529Z,100633.77
2022-10-17T12:07:56.865Z,100630.31
2022-10-17T12:11:04.469Z,100626.33
2022-10-17T12:14:45.800Z,100625.56
2022-10-17T12:18:01.062Z,100622.47
2022-10-17T12:21:03.231Z,100621.55
2022-10-17T12:24:05.358Z,100618.29
2022-10-17T12:27:30.973Z,100616.58
2022-10-17T12:31:01.332Z,100614.39
2022-10-17T12:34:04.613Z,100608.96
2022-10-17T12:37:11.443Z,100607.45
2022-10-17T12:40:47.754Z,100601.31
2022-10-17T12:43:53.205Z,100599.73
2022-10-17T12:47:10.705Z,100598.07
2022-10-17T12:51:34.261Z,100597.54
2022-10-17T12:54:37.894Z,100602.02
2022-10-17T12:57:51.882Z,100601.23
2022-10-17T13:01:24.969Z,100595.84
2022-10-17T13:04:18.199Z,100592.29
2022-10-17T13:07:22.335Z,100592.95
2022-10-17T13:10:28.303Z,100596.16
2022-10-17T13:13:48.940Z,100596.64
2022-10-17T13:17:27.661Z,100598.14
2022-10-17T13:20:31.858Z,100595.54
2022-10-17T13:23:36.973Z,100596.72
2022-10-17T13:26:45.628Z,100594.95
2022-10-17T13:29:47.389Z,100590.48
2022-10-17T13:32:49.337Z,100588.29
2022-10-17T13:36:06.419Z,100586.54
2022-10-17T13:39:13.109Z,100592.24
2022-10-17T13:42:23.380Z,100587.17
2022-10-17T13:45:37.469Z,100585.52
2022-10-17T13:48:39.419Z,100589.31
2022-10-17T13:51:50.320Z,100586.17
2022-10-17T13:54:53.786Z,100586.02
2022-10-17T13:57:55.411Z,100584.23
2022-10-17T14:00:57.460Z,100583.52
2022-10-17T14:04:20.195Z,100582.40
2022-10-17T14:07:26.826Z,100582.05
2022-10-17T14:10:34.162Z,100585.04
2022-10-17T14:13:36.211Z,100586.23
2022-10-17T14:16:40.372Z,100584.33
2022-10-17T14:19:42.179Z,100581.85
2022-10-17T14:22:47.276Z,100579.38
2022-10-17T14:26:11.819Z,100579.26
2022-10-17T14:29:24.356Z,100584.17
2022-10-17T14:32:27.590Z,100577.79
2022-10-17T14:35:41.522Z,100577.75
2022-10-17T14:38:49.220Z,100576.59
2022-10-17T14:41:52.186Z,100580.66
2022-10-17T14:44:54.835Z,100578.84
2022-10-17T14:48:04.649Z,100577.25
2022-10-17T14:51:15.402Z,100576.86
2022-10-17T14:54:26.254Z,100578.34
2022-10-17T14:57:49.825Z,100579.47
2022-10-17T15:00:51.791Z,100577.00
2022-10-17T15:03:53.709Z,100573.45
2022-10-17T15:06:55.541Z,100571.96
2022-10-17T15:09:57.222Z,100572.95
2022-10-17T15:13:27.945Z,100575.20
2022-10-17T15:16:30.897Z,100572.50
2022-10-17T15:19:32.658Z,100571.15
2022-10-17T15:22:36.657Z,100571.37
2022-10-17T15:25:39.211Z,100570.72
2022-10-17T15:28:41.104Z,100573.54
2022-10-17T15:31:43.115Z,100573.38
2022-10-17T15:34:45.148Z,100576.45
2022-10-17T15:37:47.079Z,100579.16
2022-10-17T15:40:51.154Z,100580.27
2022-10-17T15:43:53.125Z,100582.45
2022-10-17T15:46:56.398Z,100582.48
2022-10-17T15:49:58.751Z,100584.20
2022-10-17T15:53:00.448Z,100583.35
2022-10-17T15:56:02.628Z,100588.38
2022-10-17T15:59:06.757Z,100585.20
2022-10-17T16:02:14.568Z,100590.45
2022-10-17T16:05:26.106Z,100592.43
2022-10-17T16:08:28.385Z,100590.27
2022-10-17T16:11:41.178Z,100593.52
2022-10-17T16:14:43.244Z,100591.20
2022-10-17T16:17:45.029Z,100595.77
2022-10-17T16:20:47.224Z,100592.20
2022-10-17T16:23:48.981Z,100601.09
2022-10-17T16:26:51.225Z,100599.30
2022-10-17T16:29:52.810Z,100600.98
2022-10-17T16:32:55.966Z,100603.41
2022-10-17T16:35:58.097Z,100606.75
2022-10-17T16:38:59.777Z,100604.91
2022-10-17T16:42:04.689Z,100604.19
2022-10-17T16:45:06.686Z,100602.16
2022-10-17T16:48:09.387Z,100600.96
2022-10-17T16:51:12.635Z,100607.41
2022-10-17T16:54:14.355Z,100604.63
2022-10-17T16:57:16.001Z,100605.04
2022-10-17T17:00:18.326Z,100597.71
2022-10-17T17:03:20.125Z,100598.56
2022-10-17T17:06:25.394Z,100597.88
2022-10-17T17:09:27.111Z,100596.34
2022-10-17T17:12:28.842Z,100594.17
2022-10-17T17:15:30.497Z,100597.78
2022-10-17T17:18:32.397Z,100598.13
2022-10-17T17:21:35.103Z,100589.14
2022-10-17T17:24:37.203Z,100588.48
2022-10-17T17:27:38.950Z,100584.34
2022-10-17T17:30:40.738Z,100584.16
2022-10-17T17:33:43.114Z,100588.09
2022-10-17T17:36:44.895Z,100586.92
2022-10-17T17:39:46.717Z,100588.06
2022-10-17T17:42:48.435Z,100592.97
2022-10-17T17:45:50.239Z,100594.80
2022-10-17T17:48:53.334Z,100597.94
2022-10-17T17:51:55.085Z,100599.50
2022-10-17T17:54:56.966Z,100607.00
2022-10-17T17:57:58.864Z,100599.98
2022-10-17T18:01:01.194Z,100599.45
2022-10-17T18:04:03.857Z,100602.71
2022-10-17T18:07:05.833Z,100604.86
2022-10-17T18:10:08.466Z,100600.64
2022-10-17T18:13:10.198Z,100600.94
2022-10-17T18:16:16.903Z,100600.11
2022-10-17T18:19:19.020Z,100602.50
2022-10-17T18:22:20.930Z,100607.34
2022-10-17T18:25:22.801Z,100609.27
2022-10-17T18:28:24.841Z,100608.38
2022-10-17T18:31:32.370Z,100613.05
2022-10-17T18:34:34.130Z,100610.34
2022-10-17T18:37:35.758Z,100611.66
2022-10-17T18:40:38.055Z,100611.02
2022-10-17T18:43:41.582Z,100608.62
2022-10-17T18:46:43.270Z,100611.02
2022-10-17T18:49:45.158Z,100607.36
2022-10-17T18:52:48.203Z,100601.88
2022-10-17T18:55:51.388Z,100607.05
2022-10-17T18:58:53.595Z,100612.98
2022-10-17T19:01:55.452Z,100616.10
2022-10-17T19:04:57.436Z,100617.23
2022-10-17T19:07:59.557Z,100614.62
2022-10-17T19:11:13.439Z,100617.04
2022-10-17T19:14:15.224Z,100612.94
2022-10-17T19:17:17.326Z,100613.17
2022-10-17T19:20:18.951Z,100616.78
2022-10-17T19:23:20.931Z,100622.27
2022-10-17T19:26:23.446Z,100615.13
2022-10-17T19:29:28.166Z,100618.27
2022-10-17T19:32:31.259Z,100624.30
2022-10-17T19:35:34.941Z,100621.18
2022-10-17T19:38:36.910Z,100618.05
2022-10-17T19:41:43.058Z,100616.86
2022-10-17T19:44:44.687Z,100623.98
2022-10-17T19:47:46.271Z,100623.33
2022-10-17T19:50:49.954Z,100631.21
2022-10-17T19:53:52.795Z,100632.60
2022-10-17T19:56:54.546Z,100631.05
2022-10-17T19:59:56.883Z,100631.10
2022-10-17T20:03:02.656Z,100631.11
2022-10-17T20:06:04.873Z,100629.45
2022-10-17T20:09:08.810Z,100622.05
2022-10-17T20:12:12.971Z,100619.36
2022-10-17T20:15:14.819Z,100616.27
2022-10-17T20:18:16.818Z,100616.77
2022-10-17T20:21:21.693Z,100618.42
2022-10-17T20:24:23.413Z,100616.33
2022-10-17T20:27:27.648Z,100612.02
2022-10-17T20:30:29.709Z,100614.45
2022-10-17T20:33:32.131Z,100619.24
2022-10-17T20:36:37.324Z,100619.75
2022-10-17T20:39:39.405Z,100621.23
2022-10-17T20:42:41.087Z,100623.34
2022-10-17T20:45:51.286Z,100616.41
2022-10-17T20:48:54.827Z,100611.52
2022-10-17T20:51:56.759Z,100612.66
2022-10-17T20:54:58.372Z,100606.38
2022-10-17T20:58:00.153Z,100603.61
2022-10-17T21:01:08.123Z,100605.81
2022-10-17T21:07:31.690Z,100606.17
2022-10-17T21:10:35.820Z,100608.02
2022-10-17T21:13:38.346Z,100604.04
2022-10-17T21:16:41.334Z,100603.98
2022-10-17T21:19:43.082Z,100603.20
2022-10-17T21:22:44.777Z,100604.20
2022-10-17T21:25:46.426Z,100609.52
2022-10-17T21:28:48.908Z,100610.14
2022-10-17T21:31:51.335Z,100609.36
2022-10-17T21:34:53.004Z,100611.39
2022-10-17T21:37:54.724Z,100604.83
2022-10-17T21:40:56.322Z,100604.90
2022-10-17T21:44:00.560Z,100599.62
2022-10-17T21:47:02.825Z,100590.75
2022-10-17T21:50:04.858Z,100596.89
2022-10-17T21:53:06.493Z,100598.14
2022-10-17T21:56:11.722Z,100595.34
2022-10-17T21:59:13.363Z,100595.27
2022-10-17T22:02:16.433Z,100592.14
2022-10-17T22:05:18.081Z,100591.54
2022-10-17T22:08:19.790Z,100586.77
2022-10-17T22:11:28.409Z,100586.80
2022-10-17T22:14:30.332Z,100582.26
2022-10-17T22:17:32.330Z,100581.20
2022-10-17T22:20:34.934Z,100578.09
2022-10-17T22:23:38.317Z,100577.09
2022-10-17T22:26:41.498Z,100572.15
2022-10-17T22:29:46.268Z,100571.86
2022-10-17T22:32:47.999Z,100572.00
2022-10-17T22:35:49.730Z,100568.30
2022-10-17T22:38:51.391Z,100566.35
2022-10-17T22:41:53.009Z,100563.05
2022-10-17T22:44:54.665Z,100558.13
2022-10-17T22:47:56.182Z,100559.64
2022-10-17T22:50:59.152Z,100557.66
2022-10-17T22:54:01.036Z,100550.86
2022-10-17T22:57:02.713Z,100548.66
2022-10-17T23:00:06.345Z,100548.31
2022-10-17T23:03:08.087Z,100545.45
2022-10-17T23:06:29.558Z,100549.91
2022-10-17T23:09:46.581Z,100550.09
2022-10-17T23:12:48.288Z,100545.80
2022-10-17T23:15:51.630Z,100546.90
2022-10-17T23:18:53.216Z,100545.27
2022-10-17T23:21:54.927Z,100544.04
2022-10-17T23:24:56.587Z,100534.16
2022-10-17T23:27:58.290Z,100534.45
2022-10-17T23:31:09.183Z,100537.90
2022-10-17T23:34:10.877Z,100536.06
2022-10-17T23:37:12.517Z,100534.63
2022-10-17T23:40:14.050Z,100530.46
2022-10-17T23:43:15.605Z,100532.13
2022-10-17T23:46:17.668Z,100531.21
2022-10-17T23:49:19.293Z,100530.15
2022-10-17T23:52:20.893Z,100528.09
2022-10-17T23:55:22.516Z,100526.77
2022-10-17T23:58:24.144Z,100525.70
